sensor_id;sensor_type;location;lat;lon;timestamp;temperature;humidity
19555;DHT22;9924;50.828;6.440;2022-12-11T00:00:10;0.30;99.90
19555;DHT22;9924;50.828;6.440;2022-12-11T00:02:55;0.30;99.90
19555;DHT22;9924;50.828;6.440;2022-12-11T00:05:40;0.30;99.90
19555;DHT22;9924;50.828;6.440;2022-12-11T00:08:25;0.30;99.90
19555;DHT22;9924;50.828;6.440;2022-12-11T00:11:16;0.20;99.90
19555;DHT22;9924;50.828;6.440;2022-12-11T00:14:01;0.30;99.90
19555;DHT22;9924;50.828;6.440;2022-12-11T00:16:47;0.20;99.90
19555;DHT22;9924;50.828;6.440;2022-12-11T00:19:32;0.20;99.90
19555;DHT22;9924;50.828;6.440;2022-12-11T00:22:20;0.30;99.90
19555;DHT22;9924;50.828;6.440;2022-12-11T00:25:05;0.40;99.90
19555;DHT22;9924;50.828;6.440;2022-12-11T00:27:50;0.40;99.90
19555;DHT22;9924;50.828;6.440;2022-12-11T00:30:38;0.40;99.90
19555;DHT22;9924;50.828;6.440;2022-12-11T00:33:25;0.40;99.90
19555;DHT22;9924;50.828;6.440;2022-12-11T00:36:13;0.40;99.90
19555;DHT22;9924;50.828;6.440;2022-12-11T00:38:58;0.30;99.90
19555;DHT22;9924;50.828;6.440;2022-12-11T00:41:45;0.20;99.90
19555;DHT22;9924;50.828;6.440;2022-12-11T00:44:30;0.30;99.90
19555;DHT22;9924;50.828;6.440;2022-12-11T00:47:14;0.30;99.90
19555;DHT22;9924;50.828;6.440;2022-12-11T00:49:59;0.30;99.90
19555;DHT22;9924;50.828;6.440;2022-12-11T00:52:43;0.30;99.90
19555;DHT22;9924;50.828;6.440;2022-12-11T00:55:28;0.30;99.90
19555;DHT22;9924;50.828;6.440;2022-12-11T00:58:13;0.30;99.90
19555;DHT22;9924;50.828;6.440;2022-12-11T01:01:14;0.30;99.90
19555;DHT22;9924;50.828;6.440;2022-12-11T01:03:59;0.40;99.90
19555;DHT22;9924;50.828;6.440;2022-12-11T01:06:47;0.40;99.90
19555;DHT22;9924;50.828;6.440;2022-12-11T01:09:31;0.40;99.90
19555;DHT22;9924;50.828;6.440;2022-12-11T01:12:34;0.40;99.90
19555;DHT22;9924;50.828;6.440;2022-12-11T01:15:19;0.40;99.90
19555;DHT22;9924;50.828;6.440;2022-12-11T01:18:06;0.40;99.90
19555;DHT22;9924;50.828;6.440;2022-12-11T01:20:51;0.40;99.90
19555;DHT22;9924;50.828;6.440;2022-12-11T01:23:36;0.40;99.90
19555;DHT22;9924;50.828;6.440;2022-12-11T01:26:21;0.50;99.90
19555;DHT22;9924;50.828;6.440;2022-12-11T01:29:06;0.50;99.90
19555;DHT22;9924;50.828;6.440;2022-12-11T01:31:51;0.50;99.90
19555;DHT22;9924;50.828;6.440;2022-12-11T01:34:36;0.50;99.90
19555;DHT22;9924;50.828;6.440;2022-12-11T01:37:21;0.50;99.90
19555;DHT22;9924;50.828;6.440;2022-12-11T01:40:06;0.50;99.90
19555;DHT22;9924;50.828;6.440;2022-12-11T01:42:52;0.50;99.90
19555;DHT22;9924;50.828;6.440;2022-12-11T01:45:42;0.50;99.90
19555;DHT22;9924;50.828;6.440;2022-12-11T01:48:31;0.50;99.90
19555;DHT22;9924;50.828;6.440;2022-12-11T01:51:16;0.50;99.90
19555;DHT22;9924;50.828;6.440;2022-12-11T01:54:05;0.50;99.90
19555;DHT22;9924;50.828;6.440;2022-12-11T01:56:53;0.60;99.90
19555;DHT22;9924;50.828;6.440;2022-12-11T01:59:42;0.60;99.90
19555;DHT22;9924;50.828;6.440;2022-12-11T02:02:29;0.70;99.90
19555;DHT22;9924;50.828;6.440;2022-12-11T02:05:14;0.70;99.90
19555;DHT22;9924;50.828;6.440;2022-12-11T02:08:00;0.80;99.90
19555;DHT22;9924;50.828;6.440;2022-12-11T02:13:50;0.90;99.90
19555;DHT22;9924;50.828;6.440;2022-12-11T02:16:51;0.80;99.90
19555;DHT22;9924;50.828;6.440;2022-12-11T02:23:18;0.80;99.90
19555;DHT22;9924;50.828;6.440;2022-12-11T02:26:19;0.80;99.90
19555;DHT22;9924;50.828;6.440;2022-12-11T02:29:08;0.80;99.90
19555;DHT22;9924;50.828;6.440;2022-12-11T02:32:03;0.80;99.90
19555;DHT22;9924;50.828;6.440;2022-12-11T02:34:56;0.60;99.90
19555;DHT22;9924;50.828;6.440;2022-12-11T02:37:44;0.70;99.90
19555;DHT22;9924;50.828;6.440;2022-12-11T02:40:31;0.80;99.90
19555;DHT22;9924;50.828;6.440;2022-12-11T02:43:18;0.80;99.90
19555;DHT22;9924;50.828;6.440;2022-12-11T02:46:05;0.80;99.90
19555;DHT22;9924;50.828;6.440;2022-12-11T02:48:51;0.80;99.90
19555;DHT22;9924;50.828;6.440;2022-12-11T02:51:39;0.90;99.90
19555;DHT22;9924;50.828;6.440;2022-12-11T02:54:28;0.90;99.90
19555;DHT22;9924;50.828;6.440;2022-12-11T03:00:07;0.80;99.90
19555;DHT22;9924;50.828;6.440;2022-12-11T03:02:52;0.70;99.90
19555;DHT22;9924;50.828;6.440;2022-12-11T03:05:38;0.70;99.90
19555;DHT22;9924;50.828;6.440;2022-12-11T03:08:23;0.60;99.90
19555;DHT22;9924;50.828;6.440;2022-12-11T03:11:11;0.60;99.90
19555;DHT22;9924;50.828;6.440;2022-12-11T03:13:56;0.60;99.90
19555;DHT22;9924;50.828;6.440;2022-12-11T03:17:11;0.60;99.90
19555;DHT22;9924;50.828;6.440;2022-12-11T03:20:10;0.60;99.90
19555;DHT22;9924;50.828;6.440;2022-12-11T03:25:53;0.60;99.90
19555;DHT22;9924;50.828;6.440;2022-12-11T03:28:59;0.60;99.90
19555;DHT22;9924;50.828;6.440;2022-12-11T03:32:12;0.50;99.90
19555;DHT22;9924;50.828;6.440;2022-12-11T03:35:07;0.50;99.90
19555;DHT22;9924;50.828;6.440;2022-12-11T03:37:59;0.50;99.90
19555;DHT22;9924;50.828;6.440;2022-12-11T03:40:48;0.50;99.90
19555;DHT22;9924;50.828;6.440;2022-12-11T03:43:33;0.50;99.90
19555;DHT22;9924;50.828;6.440;2022-12-11T03:46:21;0.50;99.90
19555;DHT22;9924;50.828;6.440;2022-12-11T03:49:12;0.50;99.90
19555;DHT22;9924;50.828;6.440;2022-12-11T03:52:04;0.60;99.90
19555;DHT22;9924;50.828;6.440;2022-12-11T03:54:50;0.70;99.90
19555;DHT22;9924;50.828;6.440;2022-12-11T03:57:36;0.70;99.90
19555;DHT22;9924;50.828;6.440;2022-12-11T04:00:21;0.70;99.90
19555;DHT22;9924;50.828;6.440;2022-12-11T04:03:07;0.70;99.90
19555;DHT22;9924;50.828;6.440;2022-12-11T04:05:57;0.60;99.90
19555;DHT22;9924;50.828;6.440;2022-12-11T04:08:41;0.60;99.90
19555;DHT22;9924;50.828;6.440;2022-12-11T04:11:26;0.60;99.90
19555;DHT22;9924;50.828;6.440;2022-12-11T04:14:20;0.60;99.90
19555;DHT22;9924;50.828;6.440;2022-12-11T04:17:23;0.50;99.90
19555;DHT22;9924;50.828;6.440;2022-12-11T04:20:27;0.60;99.90
19555;DHT22;9924;50.828;6.440;2022-12-11T04:23:30;0.60;99.90
19555;DHT22;9924;50.828;6.440;2022-12-11T04:26:36;0.50;99.90
19555;DHT22;9924;50.828;6.440;2022-12-11T04:29:21;0.50;99.90
19555;DHT22;9924;50.828;6.440;2022-12-11T04:32:06;0.60;99.90
19555;DHT22;9924;50.828;6.440;2022-12-11T04:34:50;0.60;99.90
19555;DHT22;9924;50.828;6.440;2022-12-11T04:37:36;0.70;99.90
19555;DHT22;9924;50.828;6.440;2022-12-11T04:40:21;0.70;99.90
19555;DHT22;9924;50.828;6.440;2022-12-11T04:43:09;0.60;99.90
19555;DHT22;9924;50.828;6.440;2022-12-11T04:46:05;0.60;99.90
19555;DHT22;9924;50.828;6.440;2022-12-11T04:48:52;0.60;99.90
19555;DHT22;9924;50.828;6.440;2022-12-11T04:51:37;0.60;99.90
19555;DHT22;9924;50.828;6.440;2022-12-11T04:54:22;0.60;99.90
19555;DHT22;9924;50.828;6.440;2022-12-11T04:57:07;0.60;99.90
19555;DHT22;9924;50.828;6.440;2022-12-11T04:59:51;0.60;99.90
19555;DHT22;9924;50.828;6.440;2022-12-11T05:02:37;0.50;99.90
19555;DHT22;9924;50.828;6.440;2022-12-11T05:05:21;0.60;99.90
19555;DHT22;9924;50.828;6.440;2022-12-11T05:08:06;0.60;99.90
19555;DHT22;9924;50.828;6.440;2022-12-11T05:10:58;0.60;99.90
19555;DHT22;9924;50.828;6.440;2022-12-11T05:13:43;0.60;99.90
19555;DHT22;9924;50.828;6.440;2022-12-11T05:16:28;0.60;99.90
19555;DHT22;9924;50.828;6.440;2022-12-11T05:19:12;0.70;99.90
19555;DHT22;9924;50.828;6.440;2022-12-11T05:21:57;0.60;99.90
19555;DHT22;9924;50.828;6.440;2022-12-11T05:24:42;0.60;99.90
19555;DHT22;9924;50.828;6.440;2022-12-11T05:27:27;0.50;99.90
19555;DHT22;9924;50.828;6.440;2022-12-11T05:30:11;0.50;99.90
19555;DHT22;9924;50.828;6.440;2022-12-11T05:32:56;0.50;99.90
19555;DHT22;9924;50.828;6.440;2022-12-11T05:35:46;0.50;99.90
19555;DHT22;9924;50.828;6.440;2022-12-11T05:38:31;0.40;99.90
19555;DHT22;9924;50.828;6.440;2022-12-11T05:41:19;0.40;99.90
19555;DHT22;9924;50.828;6.440;2022-12-11T05:44:03;0.40;99.90
19555;DHT22;9924;50.828;6.440;2022-12-11T05:46:48;0.40;99.90
19555;DHT22;9924;50.828;6.440;2022-12-11T05:49:32;0.40;99.90
19555;DHT22;9924;50.828;6.440;2022-12-11T05:52:17;0.50;99.90
19555;DHT22;9924;50.828;6.440;2022-12-11T05:55:02;0.50;99.90
19555;DHT22;9924;50.828;6.440;2022-12-11T05:57:47;0.40;99.90
19555;DHT22;9924;50.828;6.440;2022-12-11T06:00:31;0.40;99.90
19555;DHT22;9924;50.828;6.440;2022-12-11T06:03:16;0.40;99.90
19555;DHT22;9924;50.828;6.440;2022-12-11T06:06:05;0.40;99.90
19555;DHT22;9924;50.828;6.440;2022-12-11T06:08:54;0.40;99.90
19555;DHT22;9924;50.828;6.440;2022-12-11T06:11:39;0.40;99.90
19555;DHT22;9924;50.828;6.440;2022-12-11T06:14:24;0.40;99.90
19555;DHT22;9924;50.828;6.440;2022-12-11T06:17:08;0.40;99.90
19555;DHT22;9924;50.828;6.440;2022-12-11T06:19:53;0.40;99.90
19555;DHT22;9924;50.828;6.440;2022-12-11T06:22:40;0.30;99.90
19555;DHT22;9924;50.828;6.440;2022-12-11T06:25:25;0.30;99.90
19555;DHT22;9924;50.828;6.440;2022-12-11T06:28:09;0.40;99.90
19555;DHT22;9924;50.828;6.440;2022-12-11T06:30:58;0.40;99.90
19555;DHT22;9924;50.828;6.440;2022-12-11T06:33:43;0.40;99.90
19555;DHT22;9924;50.828;6.440;2022-12-11T06:36:27;0.40;99.90
19555;DHT22;9924;50.828;6.440;2022-12-11T06:39:12;0.20;99.90
19555;DHT22;9924;50.828;6.440;2022-12-11T06:41:57;0.20;99.90
19555;DHT22;9924;50.828;6.440;2022-12-11T06:44:41;0.10;99.90
19555;DHT22;9924;50.828;6.440;2022-12-11T06:47:28;0.10;99.90
19555;DHT22;9924;50.828;6.440;2022-12-11T06:50:16;0.00;99.90
19555;DHT22;9924;50.828;6.440;2022-12-11T06:53:01;0.00;99.90
19555;DHT22;9924;50.828;6.440;2022-12-11T06:55:46;0.10;99.90
19555;DHT22;9924;50.828;6.440;2022-12-11T06:58:30;0.10;99.90
19555;DHT22;9924;50.828;6.440;2022-12-11T07:01:20;0.10;99.90
19555;DHT22;9924;50.828;6.440;2022-12-11T07:04:05;0.10;99.90
19555;DHT22;9924;50.828;6.440;2022-12-11T07:06:50;0.10;99.90
19555;DHT22;9924;50.828;6.440;2022-12-11T07:09:37;0.10;99.90
19555;DHT22;9924;50.828;6.440;2022-12-11T07:12:22;0.10;99.90
19555;DHT22;9924;50.828;6.440;2022-12-11T07:15:07;0.10;99.90
19555;DHT22;9924;50.828;6.440;2022-12-11T07:17:51;0.20;99.90
19555;DHT22;9924;50.828;6.440;2022-12-11T07:20:39;0.30;99.90
19555;DHT22;9924;50.828;6.440;2022-12-11T07:23:23;0.40;99.90
19555;DHT22;9924;50.828;6.440;2022-12-11T07:26:14;0.40;99.90
19555;DHT22;9924;50.828;6.440;2022-12-11T07:29:00;0.40;99.90
19555;DHT22;9924;50.828;6.440;2022-12-11T07:31:45;0.40;99.90
19555;DHT22;9924;50.828;6.440;2022-12-11T07:34:30;0.40;99.90
19555;DHT22;9924;50.828;6.440;2022-12-11T07:37:14;0.50;99.90
19555;DHT22;9924;50.828;6.440;2022-12-11T07:39:59;0.40;99.90
19555;DHT22;9924;50.828;6.440;2022-12-11T07:42:45;0.50;99.90
19555;DHT22;9924;50.828;6.440;2022-12-11T07:45:30;0.50;99.90
19555;DHT22;9924;50.828;6.440;2022-12-11T07:48:15;0.60;99.90
19555;DHT22;9924;50.828;6.440;2022-12-11T07:51:11;0.70;99.90
19555;DHT22;9924;50.828;6.440;2022-12-11T07:53:58;0.70;99.90
19555;DHT22;9924;50.828;6.440;2022-12-11T07:56:44;0.80;99.90
19555;DHT22;9924;50.828;6.440;2022-12-11T07:59:29;0.80;99.90
19555;DHT22;9924;50.828;6.440;2022-12-11T08:02:14;0.70;99.90
19555;DHT22;9924;50.828;6.440;2022-12-11T08:04:59;0.80;99.90
19555;DHT22;9924;50.828;6.440;2022-12-11T08:07:46;0.80;99.90
19555;DHT22;9924;50.828;6.440;2022-12-11T08:10:31;0.80;99.90
19555;DHT22;9924;50.828;6.440;2022-12-11T08:13:15;0.90;99.90
19555;DHT22;9924;50.828;6.440;2022-12-11T08:16:05;0.90;99.90
19555;DHT22;9924;50.828;6.440;2022-12-11T08:18:52;1.00;99.90
19555;DHT22;9924;50.828;6.440;2022-12-11T08:21:37;1.00;99.90
19555;DHT22;9924;50.828;6.440;2022-12-11T08:24:23;0.90;99.90
19555;DHT22;9924;50.828;6.440;2022-12-11T08:27:07;0.90;99.90
19555;DHT22;9924;50.828;6.440;2022-12-11T08:29:52;0.80;99.90
19555;DHT22;9924;50.828;6.440;2022-12-11T08:32:37;0.90;99.90
19555;DHT22;9924;50.828;6.440;2022-12-11T08:35:22;0.90;99.90
19555;DHT22;9924;50.828;6.440;2022-12-11T08:38:08;1.00;99.90
19555;DHT22;9924;50.828;6.440;2022-12-11T08:40:52;1.10;99.90
19555;DHT22;9924;50.828;6.440;2022-12-11T08:43:37;1.00;99.90
19555;DHT22;9924;50.828;6.440;2022-12-11T08:46:24;1.00;99.90
19555;DHT22;9924;50.828;6.440;2022-12-11T08:49:09;1.00;99.90
19555;DHT22;9924;50.828;6.440;2022-12-11T08:51:54;1.00;99.90
19555;DHT22;9924;50.828;6.440;2022-12-11T08:54:38;1.00;99.90
19555;DHT22;9924;50.828;6.440;2022-12-11T08:57:26;1.00;99.90
19555;DHT22;9924;50.828;6.440;2022-12-11T09:00:12;1.10;99.90
19555;DHT22;9924;50.828;6.440;2022-12-11T09:02:56;1.10;99.90
19555;DHT22;9924;50.828;6.440;2022-12-11T09:05:41;1.00;99.90
19555;DHT22;9924;50.828;6.440;2022-12-11T09:08:26;0.90;99.90
19555;DHT22;9924;50.828;6.440;2022-12-11T09:11:14;0.80;99.90
19555;DHT22;9924;50.828;6.440;2022-12-11T09:13:59;0.80;99.90
19555;DHT22;9924;50.828;6.440;2022-12-11T09:16:43;0.80;99.90
19555;DHT22;9924;50.828;6.440;2022-12-11T09:19:28;0.80;99.90
19555;DHT22;9924;50.828;6.440;2022-12-11T09:22:12;0.80;99.90
19555;DHT22;9924;50.828;6.440;2022-12-11T09:24:56;0.80;99.90
19555;DHT22;9924;50.828;6.440;2022-12-11T09:27:41;0.80;99.90
19555;DHT22;9924;50.828;6.440;2022-12-11T09:30:26;0.80;99.90
19555;DHT22;9924;50.828;6.440;2022-12-11T09:33:10;0.90;99.90
19555;DHT22;9924;50.828;6.440;2022-12-11T09:36:01;0.90;99.90
19555;DHT22;9924;50.828;6.440;2022-12-11T09:38:46;0.90;99.90
19555;DHT22;9924;50.828;6.440;2022-12-11T09:41:38;0.90;99.90
19555;DHT22;9924;50.828;6.440;2022-12-11T09:55:51;1.10;99.90
19555;DHT22;9924;50.828;6.440;2022-12-11T10:08:02;1.40;99.90
19555;DHT22;9924;50.828;6.440;2022-12-11T10:14:07;1.20;99.90
19555;DHT22;9924;50.828;6.440;2022-12-11T10:17:30;1.30;99.90
19555;DHT22;9924;50.828;6.440;2022-12-11T10:20:28;1.40;99.90
19555;DHT22;9924;50.828;6.440;2022-12-11T10:23:26;1.50;99.90
19555;DHT22;9924;50.828;6.440;2022-12-11T10:26:16;1.40;99.90
19555;DHT22;9924;50.828;6.440;2022-12-11T10:29:05;1.50;99.90
19555;DHT22;9924;50.828;6.440;2022-12-11T10:31:55;1.50;99.90
19555;DHT22;9924;50.828;6.440;2022-12-11T10:34:44;1.50;99.90
19555;DHT22;9924;50.828;6.440;2022-12-11T10:37:29;1.60;99.90
19555;DHT22;9924;50.828;6.440;2022-12-11T10:40:15;1.60;99.90
19555;DHT22;9924;50.828;6.440;2022-12-11T10:43:00;1.70;99.90
19555;DHT22;9924;50.828;6.440;2022-12-11T10:45:53;1.70;99.90
19555;DHT22;9924;50.828;6.440;2022-12-11T10:48:45;1.70;99.90
19555;DHT22;9924;50.828;6.440;2022-12-11T10:51:35;1.70;99.90
19555;DHT22;9924;50.828;6.440;2022-12-11T10:54:32;1.70;99.90
19555;DHT22;9924;50.828;6.440;2022-12-11T10:57:32;1.80;99.90
19555;DHT22;9924;50.828;6.440;2022-12-11T11:00:35;1.80;99.90
19555;DHT22;9924;50.828;6.440;2022-12-11T11:03:24;2.00;99.90
19555;DHT22;9924;50.828;6.440;2022-12-11T11:06:17;2.20;99.90
19555;DHT22;9924;50.828;6.440;2022-12-11T11:09:03;2.40;99.90
19555;DHT22;9924;50.828;6.440;2022-12-11T11:11:49;2.80;99.90
19555;DHT22;9924;50.828;6.440;2022-12-11T11:14:34;3.00;99.90
19555;DHT22;9924;50.828;6.440;2022-12-11T11:17:19;3.20;99.90
19555;DHT22;9924;50.828;6.440;2022-12-11T11:20:12;3.80;99.90
19555;DHT22;9924;50.828;6.440;2022-12-11T11:23:02;3.70;99.90
19555;DHT22;9924;50.828;6.440;2022-12-11T11:25:59;3.60;99.90
19555;DHT22;9924;50.828;6.440;2022-12-11T11:28:52;3.60;99.90
19555;DHT22;9924;50.828;6.440;2022-12-11T11:31:37;3.40;99.90
19555;DHT22;9924;50.828;6.440;2022-12-11T11:34:22;3.50;99.90
19555;DHT22;9924;50.828;6.440;2022-12-11T11:37:23;3.80;99.90
19555;DHT22;9924;50.828;6.440;2022-12-11T11:40:18;4.40;99.90
19555;DHT22;9924;50.828;6.440;2022-12-11T11:49:20;5.60;99.90
19555;DHT22;9924;50.828;6.440;2022-12-11T11:58:19;4.40;99.90
19555;DHT22;9924;50.828;6.440;2022-12-11T12:01:15;4.20;99.90
19555;DHT22;9924;50.828;6.440;2022-12-11T12:04:02;4.40;99.90
19555;DHT22;9924;50.828;6.440;2022-12-11T12:10:32;4.70;99.90
19555;DHT22;9924;50.828;6.440;2022-12-11T12:13:29;4.50;99.90
19555;DHT22;9924;50.828;6.440;2022-12-11T12:19:57;3.80;99.90
19555;DHT22;9924;50.828;6.440;2022-12-11T12:26:32;3.40;99.90
19555;DHT22;9924;50.828;6.440;2022-12-11T12:32:40;3.30;99.90
19555;DHT22;9924;50.828;6.440;2022-12-11T12:35:37;3.30;99.90
19555;DHT22;9924;50.828;6.440;2022-12-11T12:41:29;3.10;99.90
19555;DHT22;9924;50.828;6.440;2022-12-11T12:44:21;3.10;99.90
19555;DHT22;9924;50.828;6.440;2022-12-11T12:47:12;3.00;99.90
19555;DHT22;9924;50.828;6.440;2022-12-11T12:49:58;3.00;99.90
19555;DHT22;9924;50.828;6.440;2022-12-11T12:52:45;3.20;99.90
19555;DHT22;9924;50.828;6.440;2022-12-11T12:55:30;3.10;99.90
19555;DHT22;9924;50.828;6.440;2022-12-11T13:01:22;3.90;99.90
19555;DHT22;9924;50.828;6.440;2022-12-11T13:04:22;4.50;99.90
19555;DHT22;9924;50.828;6.440;2022-12-11T13:07:20;4.70;99.90
19555;DHT22;9924;50.828;6.440;2022-12-11T13:10:32;5.00;99.90
19555;DHT22;9924;50.828;6.440;2022-12-11T13:13:33;5.50;99.90
19555;DHT22;9924;50.828;6.440;2022-12-11T13:19:02;6.00;99.90
19555;DHT22;9924;50.828;6.440;2022-12-11T13:22:03;5.50;99.90
19555;DHT22;9924;50.828;6.440;2022-12-11T13:25:01;5.20;99.90
19555;DHT22;9924;50.828;6.440;2022-12-11T13:28:17;4.80;99.90
19555;DHT22;9924;50.828;6.440;2022-12-11T13:34:16;3.90;99.90
19555;DHT22;9924;50.828;6.440;2022-12-11T13:37:01;3.40;99.90
19555;DHT22;9924;50.828;6.440;2022-12-11T13:39:47;3.20;99.90
19555;DHT22;9924;50.828;6.440;2022-12-11T13:42:50;3.10;99.90
19555;DHT22;9924;50.828;6.440;2022-12-11T13:45:48;3.10;99.90
19555;DHT22;9924;50.828;6.440;2022-12-11T13:48:35;2.80;99.90
19555;DHT22;9924;50.828;6.440;2022-12-11T13:51:23;2.70;99.90
19555;DHT22;9924;50.828;6.440;2022-12-11T13:54:14;2.70;99.90
19555;DHT22;9924;50.828;6.440;2022-12-11T13:59:52;3.30;99.90
19555;DHT22;9924;50.828;6.440;2022-12-11T14:02:39;3.70;99.90
19555;DHT22;9924;50.828;6.440;2022-12-11T14:05:26;3.90;99.90
19555;DHT22;9924;50.828;6.440;2022-12-11T14:08:16;3.90;99.90
19555;DHT22;9924;50.828;6.440;2022-12-11T14:11:04;3.70;99.90
19555;DHT22;9924;50.828;6.440;2022-12-11T14:13:50;3.60;99.90
19555;DHT22;9924;50.828;6.440;2022-12-11T14:16:34;3.50;99.90
19555;DHT22;9924;50.828;6.440;2022-12-11T14:19:20;3.40;99.90
19555;DHT22;9924;50.828;6.440;2022-12-11T14:22:05;3.20;99.90
19555;DHT22;9924;50.828;6.440;2022-12-11T14:24:58;3.00;99.90
19555;DHT22;9924;50.828;6.440;2022-12-11T14:27:50;2.80;99.90
19555;DHT22;9924;50.828;6.440;2022-12-11T14:30:36;2.70;99.90
19555;DHT22;9924;50.828;6.440;2022-12-11T14:33:27;2.60;99.90
19555;DHT22;9924;50.828;6.440;2022-12-11T14:36:15;2.50;99.90
19555;DHT22;9924;50.828;6.440;2022-12-11T14:39:10;2.30;99.90
19555;DHT22;9924;50.828;6.440;2022-12-11T14:45:02;2.20;99.90
19555;DHT22;9924;50.828;6.440;2022-12-11T14:47:51;2.20;99.90
19555;DHT22;9924;50.828;6.440;2022-12-11T14:50:39;2.30;99.90
19555;DHT22;9924;50.828;6.440;2022-12-11T14:53:41;2.30;99.90
19555;DHT22;9924;50.828;6.440;2022-12-11T14:56:28;2.30;99.90
19555;DHT22;9924;50.828;6.440;2022-12-11T14:59:20;2.20;99.90
19555;DHT22;9924;50.828;6.440;2022-12-11T15:05:15;2.10;99.90
19555;DHT22;9924;50.828;6.440;2022-12-11T15:11:08;1.90;99.90
19555;DHT22;9924;50.828;6.440;2022-12-11T15:13:58;1.80;99.90
19555;DHT22;9924;50.828;6.440;2022-12-11T15:16:43;1.60;99.90
19555;DHT22;9924;50.828;6.440;2022-12-11T15:19:31;1.60;99.90
19555;DHT22;9924;50.828;6.440;2022-12-11T15:22:18;1.70;99.90
19555;DHT22;9924;50.828;6.440;2022-12-11T15:25:03;1.70;99.90
19555;DHT22;9924;50.828;6.440;2022-12-11T15:27:51;1.70;99.90
19555;DHT22;9924;50.828;6.440;2022-12-11T15:30:36;1.70;99.90
19555;DHT22;9924;50.828;6.440;2022-12-11T15:33:21;1.70;99.90
19555;DHT22;9924;50.828;6.440;2022-12-11T15:36:18;1.60;99.90
19555;DHT22;9924;50.828;6.440;2022-12-11T15:39:05;1.60;99.90
19555;DHT22;9924;50.828;6.440;2022-12-11T15:41:51;1.60;99.90
19555;DHT22;9924;50.828;6.440;2022-12-11T15:44:37;1.70;99.90
19555;DHT22;9924;50.828;6.440;2022-12-11T15:47:26;1.70;99.90
19555;DHT22;9924;50.828;6.440;2022-12-11T15:50:15;1.70;99.90
19555;DHT22;9924;50.828;6.440;2022-12-11T15:53:01;1.60;99.90
19555;DHT22;9924;50.828;6.440;2022-12-11T15:55:45;1.50;99.90
19555;DHT22;9924;50.828;6.440;2022-12-11T15:58:30;1.40;99.90
19555;DHT22;9924;50.828;6.440;2022-12-11T16:01:15;1.30;99.90
19555;DHT22;9924;50.828;6.440;2022-12-11T16:04:00;1.40;99.90
19555;DHT22;9924;50.828;6.440;2022-12-11T16:06:45;1.30;99.90
19555;DHT22;9924;50.828;6.440;2022-12-11T16:09:30;1.30;99.90
19555;DHT22;9924;50.828;6.440;2022-12-11T16:12:18;1.20;99.90
19555;DHT22;9924;50.828;6.440;2022-12-11T16:15:03;1.10;99.90
19555;DHT22;9924;50.828;6.440;2022-12-11T16:17:47;0.90;99.90
19555;DHT22;9924;50.828;6.440;2022-12-11T16:20:33;0.80;99.90
19555;DHT22;9924;50.828;6.440;2022-12-11T16:23:18;0.80;99.90
19555;DHT22;9924;50.828;6.440;2022-12-11T16:26:07;0.80;99.90
19555;DHT22;9924;50.828;6.440;2022-12-11T16:28:53;0.70;99.90
19555;DHT22;9924;50.828;6.440;2022-12-11T16:31:38;0.70;99.90
19555;DHT22;9924;50.828;6.440;2022-12-11T16:34:28;0.60;99.90
19555;DHT22;9924;50.828;6.440;2022-12-11T16:37:13;0.60;99.90
19555;DHT22;9924;50.828;6.440;2022-12-11T16:39:58;0.50;99.90
19555;DHT22;9924;50.828;6.440;2022-12-11T16:42:43;0.40;99.90
19555;DHT22;9924;50.828;6.440;2022-12-11T16:45:28;0.20;99.90
19555;DHT22;9924;50.828;6.440;2022-12-11T16:48:12;0.20;99.90
19555;DHT22;9924;50.828;6.440;2022-12-11T16:50:57;0.10;99.90
19555;DHT22;9924;50.828;6.440;2022-12-11T16:53:42;0.00;99.90
19555;DHT22;9924;50.828;6.440;2022-12-11T16:56:27;0.00;99.90
19555;DHT22;9924;50.828;6.440;2022-12-11T16:59:11;0.00;99.90
19555;DHT22;9924;50.828;6.440;2022-12-11T17:01:56;0.00;99.90
19555;DHT22;9924;50.828;6.440;2022-12-11T17:04:40;0.00;99.90
19555;DHT22;9924;50.828;6.440;2022-12-11T17:07:25;0.00;99.90
19555;DHT22;9924;50.828;6.440;2022-12-11T17:10:10;0.10;99.90
19555;DHT22;9924;50.828;6.440;2022-12-11T17:12:54;0.10;99.90
19555;DHT22;9924;50.828;6.440;2022-12-11T17:15:40;0.10;99.90
19555;DHT22;9924;50.828;6.440;2022-12-11T17:18:26;0.00;99.90
19555;DHT22;9924;50.828;6.440;2022-12-11T17:21:13;0.00;99.90
19555;DHT22;9924;50.828;6.440;2022-12-11T17:23:58;0.00;99.90
19555;DHT22;9924;50.828;6.440;2022-12-11T17:26:43;0.00;99.90
19555;DHT22;9924;50.828;6.440;2022-12-11T17:29:27;0.00;99.90
19555;DHT22;9924;50.828;6.440;2022-12-11T17:32:12;0.10;99.90
19555;DHT22;9924;50.828;6.440;2022-12-11T17:34:57;0.10;99.90
19555;DHT22;9924;50.828;6.440;2022-12-11T17:37:42;0.10;99.90
19555;DHT22;9924;50.828;6.440;2022-12-11T17:40:27;0.10;99.90
19555;DHT22;9924;50.828;6.440;2022-12-11T17:43:14;0.00;99.90
19555;DHT22;9924;50.828;6.440;2022-12-11T17:45:59;-0.10;99.90
19555;DHT22;9924;50.828;6.440;2022-12-11T17:48:47;0.00;99.90
19555;DHT22;9924;50.828;6.440;2022-12-11T17:51:32;0.00;99.90
19555;DHT22;9924;50.828;6.440;2022-12-11T17:54:16;0.00;99.90
19555;DHT22;9924;50.828;6.440;2022-12-11T17:57:01;0.00;99.90
19555;DHT22;9924;50.828;6.440;2022-12-11T17:59:46;0.10;99.90
19555;DHT22;9924;50.828;6.440;2022-12-11T18:02:31;0.10;99.90
19555;DHT22;9924;50.828;6.440;2022-12-11T18:05:17;0.10;99.90
19555;DHT22;9924;50.828;6.440;2022-12-11T18:08:02;0.10;99.90
19555;DHT22;9924;50.828;6.440;2022-12-11T18:10:47;0.10;99.90
19555;DHT22;9924;50.828;6.440;2022-12-11T18:13:32;0.10;99.90
19555;DHT22;9924;50.828;6.440;2022-12-11T18:16:20;0.10;99.90
19555;DHT22;9924;50.828;6.440;2022-12-11T18:19:05;0.10;99.90
19555;DHT22;9924;50.828;6.440;2022-12-11T18:21:52;0.00;99.90
19555;DHT22;9924;50.828;6.440;2022-12-11T18:24:37;0.00;99.90
19555;DHT22;9924;50.828;6.440;2022-12-11T18:27:21;-0.10;99.90
19555;DHT22;9924;50.828;6.440;2022-12-11T18:30:06;-0.10;99.90
19555;DHT22;9924;50.828;6.440;2022-12-11T18:32:51;-0.10;99.90
19555;DHT22;9924;50.828;6.440;2022-12-11T18:35:36;0.00;99.90
19555;DHT22;9924;50.828;6.440;2022-12-11T18:38:21;-0.10;99.90
19555;DHT22;9924;50.828;6.440;2022-12-11T18:41:07;-0.20;99.90
19555;DHT22;9924;50.828;6.440;2022-12-11T18:43:52;-0.30;99.90
19555;DHT22;9924;50.828;6.440;2022-12-11T18:46:37;-0.30;99.90
19555;DHT22;9924;50.828;6.440;2022-12-11T18:49:22;-0.30;99.90
19555;DHT22;9924;50.828;6.440;2022-12-11T18:52:07;-0.30;99.90
19555;DHT22;9924;50.828;6.440;2022-12-11T18:54:52;-0.40;99.90
19555;DHT22;9924;50.828;6.440;2022-12-11T18:57:37;-0.40;99.90
19555;DHT22;9924;50.828;6.440;2022-12-11T19:00:21;-0.40;99.90
19555;DHT22;9924;50.828;6.440;2022-12-11T19:03:06;-0.40;99.90
19555;DHT22;9924;50.828;6.440;2022-12-11T19:05:51;-0.40;99.90
19555;DHT22;9924;50.828;6.440;2022-12-11T19:08:36;-0.40;99.90
19555;DHT22;9924;50.828;6.440;2022-12-11T19:11:22;-0.30;99.90
19555;DHT22;9924;50.828;6.440;2022-12-11T19:14:09;-0.40;99.90
19555;DHT22;9924;50.828;6.440;2022-12-11T19:16:54;-0.50;99.90
19555;DHT22;9924;50.828;6.440;2022-12-11T19:19:39;-0.60;99.90
19555;DHT22;9924;50.828;6.440;2022-12-11T19:22:24;-0.70;99.90
19555;DHT22;9924;50.828;6.440;2022-12-11T19:25:08;-0.70;99.90
19555;DHT22;9924;50.828;6.440;2022-12-11T19:27:54;-0.70;99.90
19555;DHT22;9924;50.828;6.440;2022-12-11T19:30:47;-0.60;99.90
19555;DHT22;9924;50.828;6.440;2022-12-11T19:33:32;-0.50;99.90
19555;DHT22;9924;50.828;6.440;2022-12-11T19:36:19;-0.50;99.90
19555;DHT22;9924;50.828;6.440;2022-12-11T19:39:04;-0.60;99.90